ADDS METAR Data INFO
IDs: Format: Raw Decoded Include TAF

Data at: 2337 UTC 25 Feb 2018

KPUJ 252315Z AUTO 00000KT 10SM -RA OVC100 17/ A3014 RMK AO2
KPUJ 252255Z AUTO 23003KT 10SM RA OVC090 17/ A3013 RMK AO2
KPUJ 252235Z AUTO 00000KT 10SM -DZ OVC100 17/ A3012 RMK AO2
KPUJ 252215Z AUTO 00000KT 10SM -RA OVC090 16/ A3011 RMK AO2
KPUJ 252155Z AUTO 20004KT 10SM -RA OVC090 17/ A3010 RMK AO2
KPUJ 252135Z AUTO 22003KT 10SM -DZ OVC090 17/ A3009 RMK AO2
KPUJ 252115Z AUTO 18004KT 10SM -DZ OVC090 17/ A3008 RMK AO2
KPUJ 252055Z AUTO 16006KT 10SM RA OVC090 17/ A3008 RMK AO2
KPUJ 252035Z AUTO 17003KT 10SM -DZ SCT005 OVC090 17/ A3010 RMK AO2
KPUJ 252015Z AUTO 00000KT 10SM -DZ SCT005 SCT050 OVC090 17/ A3010 RMK AO2
KPUJ 251955Z AUTO 16005KT 10SM -RA SCT002 SCT032 OVC090 17/ A3009 RMK AO2
KPUJ 251935Z AUTO 17004KT 10SM RA BKN002 BKN012 OVC090 17/ A3010 RMK AO2
KPUJ 251915Z AUTO 16004KT 10SM -RA BKN002 BKN009 OVC090 16/ A3011 RMK AO2
KPUJ 251855Z AUTO 14004KT 10SM -DZ SCT002 SCT046 OVC090 17/ A3011 RMK AO2
KPUJ 251835Z AUTO 00000KT 10SM -RA OVC090 16/ A3013 RMK AO2
KPUJ 251815Z AUTO 00000KT 10SM -RA SCT080 OVC090 16/16 A3015 RMK AO2
KPUJ 251755Z AUTO 00000KT 10SM -DZ SCT008 OVC090 16/16 A3016 RMK AO2
KPUJ 251735Z AUTO 00000KT 10SM -RA SCT007 SCT047 OVC090 16/16 A3016 RMK AO2
KPUJ 251715Z AUTO 00000KT 10SM RA SCT007 BKN046 OVC090 16/16 A3018 RMK AO2
KPUJ 251655Z AUTO 28005KT 10SM -RA SCT007 BKN020 OVC090 16/ A3020 RMK AO2
KPUJ 251635Z AUTO 26003KT 10SM -RA SCT003 BKN020 OVC090 16/ A3018 RMK AO2
KPUJ 251615Z AUTO 26003KT 10SM -RA SCT003 BKN025 OVC075 16/ A3017 RMK AO2
KPUJ 251555Z AUTO 19003KT 7SM -RA BKN003 BKN027 OVC045 16/ A3014 RMK AO2
KPUJ 251535Z AUTO 16003KT 10SM -RA BKN003 BKN008 OVC021 16/ A3013 RMK AO2
KPUJ 251515Z AUTO 17003KT 10SM RA SCT003 BKN008 OVC080 16/ A3013 RMK AO2
KPUJ 251455Z AUTO 13003KT 7SM -RA SCT070 OVC080 16/16 A3012 RMK AO2
KPUJ 251435Z AUTO 00000KT 7SM RA BKN060 OVC080 16/16 A3013 RMK AO2
KPUJ 251415Z AUTO 00000KT 7SM RA SCT006 SCT035 OVC060 16/16 A3013 RMK AO2
KPUJ 251355Z AUTO 34008KT 7SM RA BKN006 BKN023 OVC035 16/16 A3012 RMK AO2
KPUJ 251335Z AUTO 30011G16KT 3SM RA BKN008 BKN017 OVC025 17/17 A3013 RMK AO2
KPUJ 251315Z AUTO 30006KT 4SM RA BKN006 BKN013 OVC025 18/18 A3010 RMK AO2
KPUJ 251255Z AUTO 28006KT 1 1/4SM +RA OVC011 18/18 A3008 RMK AO2
KPUJ 251235Z AUTO 35004KT 10SM OVC013 20/20 A3006 RMK AO2
KPUJ 251215Z AUTO 21005KT 10SM OVC013 20/20 A3005 RMK AO2
KPUJ 251155Z AUTO 20006KT 10SM OVC015 20/20 A3003 RMK AO2
KPUJ 251135Z AUTO 20003KT 10SM -RA BKN013 OVC028 20/20 A3003 RMK AO2
KPUJ 251115Z AUTO 21006G16KT 7SM +RA SCT010 OVC015 21/20 A3003 RMK AO2
KPUJ 251055Z AUTO 20008KT 150V250 10SM OVC015 21/19 A3002 RMK AO2
KPUJ 251035Z AUTO 22006KT 10SM OVC015 21/19 A3001 RMK AO2
KPUJ 251015Z AUTO 23009G14KT 180V260 10SM OVC015 21/19 A3002 RMK AO2
KPUJ 250955Z AUTO 22005KT 10SM OVC015 21/18 A3002 RMK AO2
KPUJ 250935Z AUTO 21008G15KT 150V250 10SM OVC017 21/18 A3001 RMK AO2
KPUJ 250915Z AUTO 20007G15KT 160V240 10SM BKN019 BKN026 OVC031 21/18 A3001 RMK AO2
KPUJ 250855Z AUTO 22011G19KT 10SM OVC017 21/18 A3003 RMK AO2
KPUJ 250835Z AUTO 22005KT 10SM OVC019 21/18 A3003 RMK AO2
KPUJ 250815Z AUTO 21005G14KT 10SM OVC019 21/18 A3003 RMK AO2
KPUJ 250755Z AUTO 21006KT 10SM OVC019 21/18 A3003 RMK AO2
KPUJ 250735Z AUTO 21006G14KT 10SM BKN019 21/18 A3003 RMK AO2
KPUJ 250715Z AUTO 21007KT 10SM SCT021 21/17 A3005 RMK AO2
KPUJ 250655Z AUTO 20005G16KT 10SM CLR 21/17 A3005 RMK AO2
KPUJ 250635Z AUTO 20009G15KT 10SM SCT085 21/17 A3004 RMK AO2
KPUJ 250615Z AUTO 20006KT 10SM BKN085 22/17 A3005 RMK AO2
KPUJ 250555Z AUTO 21007KT 10SM CLR 22/17 A3005 RMK AO2
KPUJ 250535Z AUTO 20006G16KT 10SM CLR 22/17 A3006 RMK AO2
KPUJ 250515Z AUTO 21008KT 170V270 10SM SCT085 22/17 A3006 RMK AO2
KPUJ 250455Z AUTO 21008KT 170V240 10SM BKN095 22/17 A3006 RMK AO2
KPUJ 250435Z AUTO 21008KT 170V250 10SM BKN095 22/17 A3005 RMK AO2
KPUJ 250415Z AUTO 20007KT 170V230 10SM SCT095 23/17 A3005 RMK AO2
KPUJ 250355Z AUTO 22007KT 160V250 10SM SCT095 23/17 A3006 RMK AO2
KPUJ 250335Z AUTO 21005KT 10SM SCT095 23/17 A3006 RMK AO2
KPUJ 250315Z AUTO 21006KT 10SM SCT095 23/17 A3005 RMK AO2
KPUJ 250255Z AUTO 20006KT 180V240 10SM CLR 23/17 A3004 RMK AO2
KPUJ 250235Z AUTO 18006KT 10SM CLR 23/17 A3003 RMK AO2
KPUJ 250215Z AUTO 18005KT 10SM SCT065 SCT075 23/17 A3004 RMK AO2
KPUJ 250155Z AUTO 19005KT 10SM SCT055 BKN065 BKN075 23/17 A3004 RMK AO2
KPUJ 250135Z AUTO 19005KT 10SM SCT060 23/16 A3005 RMK AO2
KPUJ 250115Z AUTO 19004KT 10SM CLR 23/17 A3004 RMK AO2
KPUJ 250055Z AUTO 17003KT 10SM CLR 23/17 A3004 RMK AO2
KPUJ 250035Z AUTO 19003KT 10SM CLR 24/17 A3004 RMK AO2
KPUJ 250015Z AUTO 20003KT 10SM CLR 24/17 A3004 RMK AO2
KPUJ 242355Z AUTO 20005KT 10SM CLR 25/17 A3004 RMK AO2
KPUJ 242335Z AUTO 21005KT 10SM CLR 25/17 A3004 RMK AO2
KPUJ 242315Z AUTO 21005KT 10SM SCT050 SCT070 26/17 A3004 RMK AO2
KPUJ 242255Z AUTO 20008G16KT 170V230 10SM SCT048 BKN060 BKN070 26/16 A3004 RMK AO2
KPUJ 242235Z AUTO 20007G18KT 160V230 10SM SCT050 BKN065 BKN075 27/16 A3004 RMK AO2
KPUJ 242215Z AUTO 21005G14KT 10SM SCT055 SCT065 SCT075 26/16 A3004 RMK AO2
KPUJ 242155Z AUTO 23006KT 10SM SCT046 SCT055 SCT065 26/16 A3005 RMK AO2
KPUJ 242135Z AUTO 20008G14KT 140V250 10SM SCT050 SCT055 SCT080 26/16 A3005 RMK AO2
KPUJ 242115Z AUTO 20008G15KT 170V230 10SM BKN050 BKN110 28/17 A3005 RMK AO2
KPUJ 242055Z AUTO 19008G17KT 150V230 10SM SCT048 BKN110 28/16 A3005 RMK AO2
KPUJ 242035Z AUTO 21007G15KT 150V250 10SM SCT048 BKN055 BKN085 27/16 A3006 RMK AO2
KPUJ 242015Z AUTO 22007G15KT 160V340 10SM SCT048 BKN055 BKN085 28/16 A3007 RMK AO2
KPUJ 241955Z AUTO 22006KT 10SM SCT048 SCT055 28/17 A3007 RMK AO2
KPUJ 241935Z AUTO 21008G19KT 10SM BKN048 BKN055 27/17 A3007 RMK AO2
KPUJ 241915Z AUTO 22008G15KT 170V270 10SM BKN046 BKN055 BKN065 27/17 A3009 RMK AO2
KPUJ 241855Z AUTO 22010G16KT 160V280 10SM BKN046 BKN050 BKN065 27/17 A3010 RMK AO2
KPUJ 241835Z AUTO 22009G19KT 180V250 10SM BKN042 OVC050 27/17 A3012 RMK AO2
KPUJ 241815Z AUTO 23006KT 190V270 10SM BKN040 OVC048 26/17 A3013 RMK AO2
KPUJ 241755Z AUTO 23005KT 10SM BKN040 OVC046 26/17 A3014 RMK AO2
KPUJ 241735Z AUTO 18008G14KT 10SM BKN040 BKN120 26/17 A3015 RMK AO2
KPUJ 241715Z AUTO 19006KT 10SM BKN038 BKN044 BKN120 26/17 A3017 RMK AO2
KPUJ 241655Z AUTO 23008G15KT 180V260 10SM SCT038 BKN120 25/17 A3018 RMK AO2
KPUJ 241635Z AUTO 22005G18KT 180V260 10SM SCT036 SCT110 25/17 A3019 RMK AO2
KPUJ 241615Z AUTO 21006KT 10SM CLR 25/17 A3019 RMK AO2
KPUJ 241555Z AUTO 19008KT 110V240 10SM BKN120 24/17 A3019 RMK AO2
KPUJ 241535Z AUTO 20006KT 10SM OVC120 23/18 A3020 RMK AO2
KPUJ 241515Z AUTO 19006KT 160V220 10SM OVC110 22/18 A3020 RMK AO2
KPUJ 241455Z AUTO 21006KT 10SM OVC100 21/18 A3020 RMK AO2
KPUJ 241435Z AUTO 21006KT 10SM SCT009 BKN100 BKN120 22/18 A3020 RMK AO2
KPUJ 241415Z AUTO 20008KT 10SM BKN009 BKN100 BKN120 21/20 A3020 RMK AO2
KPUJ 241355Z AUTO 20004KT 10SM BKN009 OVC120 20/20 A3020 RMK AO2
KPUJ 241335Z AUTO 20006KT 10SM SCT009 SCT095 OVC110 20/20 A3020 RMK AO2
KPUJ 241315Z AUTO 19005KT 10SM SCT100 OVC110 20/20 A3020 RMK AO2
KPUJ 241255Z AUTO 18005KT 10SM OVC110 20/20 A3020 RMK AO2
KPUJ 241235Z AUTO 17003KT 10SM OVC110 20/20 A3020 RMK AO2
KPUJ 241215Z AUTO 00000KT 10SM OVC110 20/20 A3019 RMK AO2
KPUJ 241155Z AUTO 18003KT 10SM OVC110 20/20 A3019 RMK AO2